createdAt,value
2023-05-03T00:00:56.083Z,5.05
2023-05-03T00:03:57.745Z,5.03
2023-05-03T00:06:59.273Z,5.01
2023-05-03T00:10:01.286Z,4.99
2023-05-03T00:13:03.082Z,4.97
2023-05-03T00:16:04.932Z,4.93
2023-05-03T00:19:07.806Z,4.90
2023-05-03T00:22:12.804Z,4.86
2023-05-03T00:25:17.349Z,4.84
2023-05-03T00:28:18.876Z,4.79
2023-05-03T00:31:20.667Z,4.75
2023-05-03T00:34:22.310Z,4.71
2023-05-03T00:37:24.945Z,4.67
2023-05-03T00:40:26.490Z,4.63
2023-05-03T00:43:28.104Z,4.58
2023-05-03T00:46:29.772Z,4.52
2023-05-03T00:49:31.635Z,4.46
2023-05-03T00:52:35.005Z,4.43
2023-05-03T00:55:36.649Z,4.40
2023-05-03T00:58:40.534Z,4.37
2023-05-03T01:01:42.329Z,4.34
2023-05-03T01:04:44.556Z,4.32
2023-05-03T01:07:55.011Z,4.31
2023-05-03T01:11:06.693Z,4.30
2023-05-03T01:14:36.350Z,4.27
2023-05-03T01:18:11.021Z,4.25
2023-05-03T01:21:16.567Z,4.22
2023-05-03T01:24:22.098Z,4.21
2023-05-03T01:27:23.943Z,4.19
2023-05-03T01:30:27.709Z,4.20
2023-05-03T01:33:47.262Z,4.18
2023-05-03T01:36:49.866Z,4.17
2023-05-03T01:40:01.731Z,4.17
2023-05-03T01:43:05.066Z,4.17
2023-05-03T01:46:06.947Z,4.16
2023-05-03T01:49:08.738Z,4.15
2023-05-03T01:52:10.345Z,4.14
2023-05-03T01:55:11.975Z,4.15
2023-05-03T01:58:13.514Z,4.16
2023-05-03T02:01:15.088Z,4.17
2023-05-03T02:04:16.713Z,4.19
2023-05-03T02:07:18.290Z,4.22
2023-05-03T02:10:19.885Z,4.23
2023-05-03T02:13:21.459Z,4.24
2023-05-03T02:16:23.136Z,4.24
2023-05-03T02:19:25.079Z,4.25
2023-05-03T02:22:26.774Z,4.26
2023-05-03T02:25:28.329Z,4.28
2023-05-03T02:28:29.888Z,4.30
2023-05-03T02:31:31.576Z,4.32
2023-05-03T02:34:33.445Z,4.33
2023-05-03T02:37:35.009Z,4.34
2023-05-03T02:40:36.623Z,4.36
2023-05-03T02:43:38.297Z,4.37
2023-05-03T02:46:41.998Z,4.37
2023-05-03T02:49:43.617Z,4.38
2023-05-03T02:52:45.187Z,4.40
2023-05-03T02:55:46.717Z,4.40
2023-05-03T02:58:48.339Z,4.40
2023-05-03T03:01:49.923Z,4.39
2023-05-03T03:04:51.552Z,4.38
2023-05-03T03:07:53.136Z,4.41
2023-05-03T03:10:54.900Z,4.42
2023-05-03T03:13:56.495Z,4.43
2023-05-03T03:16:58.322Z,4.44
2023-05-03T03:20:02.246Z,4.46
2023-05-03T03:23:04.160Z,4.49
2023-05-03T03:26:06.324Z,4.50
2023-05-03T03:29:10.161Z,4.50
2023-05-03T03:32:11.735Z,4.50
2023-05-03T03:35:13.628Z,4.50
2023-05-03T03:38:15.146Z,4.51
2023-05-03T03:41:16.825Z,4.51
2023-05-03T03:44:18.420Z,4.54
2023-05-03T03:47:20.217Z,4.54
2023-05-03T03:50:22.062Z,4.56
2023-05-03T03:53:23.927Z,4.58
2023-05-03T03:56:25.837Z,4.61
2023-05-03T03:59:27.961Z,4.63
2023-05-03T04:02:29.646Z,4.65
2023-05-03T04:05:31.540Z,4.67
2023-05-03T04:08:33.109Z,4.69
2023-05-03T04:11:35.061Z,4.68
2023-05-03T04:14:36.689Z,4.69
2023-05-03T04:17:38.331Z,4.71
2023-05-03T04:20:39.973Z,4.73
2023-05-03T04:23:41.565Z,4.73
2023-05-03T04:26:43.863Z,4.72
2023-05-03T04:29:45.518Z,4.72
2023-05-03T04:32:47.351Z,4.73
2023-05-03T04:35:51.229Z,4.74
2023-05-03T04:38:52.859Z,4.74
2023-05-03T04:41:54.470Z,4.76
2023-05-03T04:44:56.052Z,4.78
2023-05-03T04:47:57.715Z,4.80
2023-05-03T04:50:59.503Z,4.83
2023-05-03T04:54:02.054Z,4.86
2023-05-03T04:57:03.678Z,4.88
2023-05-03T05:00:10.986Z,4.92
2023-05-03T05:03:12.984Z,4.95
2023-05-03T05:06:14.869Z,4.99
2023-05-03T05:09:24.103Z,5.03
2023-05-03T05:12:26.106Z,5.08
2023-05-03T05:15:27.682Z,5.10
2023-05-03T05:18:29.318Z,5.15
2023-05-03T05:21:31.496Z,5.18
2023-05-03T05:24:33.058Z,5.21
2023-05-03T05:27:35.169Z,5.24
2023-05-03T05:30:36.824Z,5.28
2023-05-03T05:33:38.427Z,5.32
2023-05-03T05:36:40.068Z,5.35
2023-05-03T05:39:41.633Z,5.38
2023-05-03T05:42:43.428Z,5.43
2023-05-03T05:45:45.016Z,5.46
2023-05-03T05:48:46.756Z,5.50
2023-05-03T05:51:48.295Z,5.55
2023-05-03T05:54:49.867Z,5.57
2023-05-03T05:57:51.439Z,5.62
2023-05-03T06:00:53.052Z,5.65
2023-05-03T06:03:56.017Z,5.69
2023-05-03T06:06:57.625Z,5.73
2023-05-03T06:09:59.277Z,5.78
2023-05-03T06:13:01.038Z,5.83
2023-05-03T06:16:03.552Z,5.89
2023-05-03T06:19:05.164Z,5.94
2023-05-03T06:22:07.356Z,5.98
2023-05-03T06:25:10.840Z,6.04
2023-05-03T06:28:12.500Z,6.14
2023-05-03T06:31:14.084Z,6.25
2023-05-03T06:34:20.350Z,6.40
2023-05-03T06:37:22.926Z,6.56
2023-05-03T06:40:26.020Z,6.69
2023-05-03T06:43:27.589Z,6.83
2023-05-03T06:46:29.192Z,6.93
2023-05-03T06:49:30.751Z,7.02
2023-05-03T06:52:32.328Z,7.06
2023-05-03T06:55:33.861Z,7.10
2023-05-03T06:58:35.481Z,7.34
2023-05-03T07:01:37.118Z,7.84
2023-05-03T07:04:39.798Z,8.29
2023-05-03T07:07:41.332Z,8.64
2023-05-03T07:10:42.896Z,8.82
2023-05-03T07:13:44.474Z,8.85
2023-05-03T07:16:46.128Z,8.74
2023-05-03T07:19:51.007Z,8.57
2023-05-03T07:22:52.913Z,8.48
2023-05-03T07:25:55.848Z,8.37
2023-05-03T07:28:57.562Z,8.23
2023-05-03T07:32:00.073Z,8.10
2023-05-03T07:35:02.252Z,8.00
2023-05-03T07:38:04.717Z,7.89
2023-05-03T07:41:08.699Z,7.83
2023-05-03T07:44:10.368Z,7.80
2023-05-03T07:47:12.016Z,7.81
2023-05-03T07:50:13.559Z,7.81
2023-05-03T07:53:15.155Z,7.83
2023-05-03T07:56:16.676Z,7.87
2023-05-03T07:59:18.262Z,7.90
2023-05-03T08:02:20.025Z,7.94
2023-05-03T08:05:23.328Z,7.96
2023-05-03T08:08:25.101Z,7.96
2023-05-03T08:11:29.721Z,7.98
2023-05-03T08:14:31.328Z,7.96
2023-05-03T08:17:33.372Z,7.94
2023-05-03T08:20:37.010Z,7.95
2023-05-03T08:23:38.602Z,7.96
2023-05-03T08:26:41.099Z,7.99
2023-05-03T08:29:42.666Z,8.02
2023-05-03T08:32:44.323Z,8.10
2023-05-03T08:38:47.477Z,8.23
2023-05-03T08:41:49.164Z,8.30
2023-05-03T08:44:51.023Z,8.36
2023-05-03T08:47:55.719Z,8.44
2023-05-03T08:50:58.147Z,8.53
2023-05-03T08:53:59.694Z,8.60
2023-05-03T08:57:01.580Z,8.66
2023-05-03T09:00:06.753Z,8.70
2023-05-03T09:03:08.816Z,8.74
2023-05-03T09:06:20.574Z,8.81
2023-05-03T09:09:31.723Z,8.87
2023-05-03T09:12:41.242Z,8.92
2023-05-03T09:15:45.297Z,8.95
2023-05-03T09:18:57.564Z,8.97
2023-05-03T09:22:07.063Z,8.99
2023-05-03T09:25:09.475Z,8.99
2023-05-03T09:28:11.626Z,9.00
2023-05-03T09:31:13.531Z,8.99
2023-05-03T09:34:22.671Z,8.97
2023-05-03T09:37:36.874Z,8.97
2023-05-03T09:40:46.633Z,8.94
2023-05-03T09:43:52.755Z,8.96
2023-05-03T09:47:04.308Z,9.02
2023-05-03T09:50:06.442Z,9.08
2023-05-03T09:53:08.378Z,9.08
2023-05-03T09:56:14.882Z,9.05
2023-05-03T09:59:17.478Z,9.05
2023-05-03T10:02:19.448Z,9.08
2023-05-03T10:05:22.374Z,9.09
2023-05-03T10:08:30.035Z,9.14
2023-05-03T10:11:34.546Z,9.19
2023-05-03T10:14:36.674Z,9.23
2023-05-03T10:21:00.715Z,9.44
2023-05-03T10:24:13.224Z,9.54
2023-05-03T10:27:16.952Z,9.59
2023-05-03T10:30:33.259Z,9.59
2023-05-03T10:33:35.454Z,9.56
2023-05-03T10:36:48.929Z,9.55
2023-05-03T10:39:57.932Z,9.51
2023-05-03T10:43:01.296Z,9.56
2023-05-03T10:46:08.800Z,9.61
2023-05-03T10:49:28.289Z,9.69
2023-05-03T10:52:35.887Z,9.81
2023-05-03T10:55:38.116Z,9.88
2023-05-03T10:58:44.928Z,9.90
2023-05-03T11:01:51.133Z,9.98
2023-05-03T11:04:56.506Z,10.05
2023-05-03T11:08:22.864Z,10.18
2023-05-03T11:11:24.537Z,10.38
2023-05-03T11:14:26.083Z,10.63
2023-05-03T11:17:29.309Z,10.92
2023-05-03T11:20:31.181Z,11.06
2023-05-03T11:23:32.855Z,11.12
2023-05-03T11:26:40.594Z,11.17
2023-05-03T11:29:48.203Z,11.23
2023-05-03T11:32:50.972Z,11.26
2023-05-03T11:35:56.524Z,11.27
2023-05-03T11:38:58.081Z,11.27
2023-05-03T11:42:04.779Z,11.29
2023-05-03T11:45:07.693Z,11.23
2023-05-03T11:48:10.651Z,11.12
2023-05-03T11:51:12.610Z,11.08
2023-05-03T11:57:22.457Z,11.08
2023-05-03T12:00:25.539Z,11.05
2023-05-03T12:03:32.235Z,11.06
2023-05-03T12:06:36.316Z,11.09
2023-05-03T12:09:40.773Z,11.17
2023-05-03T12:12:57.442Z,11.33
2023-05-03T12:22:26.130Z,11.95
2023-05-03T12:25:34.037Z,12.14
2023-05-03T12:28:36.596Z,12.37
2023-05-03T12:31:39.555Z,12.65
2023-05-03T12:34:42.536Z,12.90
2023-05-03T12:37:48.314Z,13.07
2023-05-03T12:40:51.128Z,13.13
2023-05-03T12:43:52.782Z,13.15
2023-05-03T12:46:54.590Z,13.15
2023-05-03T12:49:59.677Z,13.10
2023-05-03T12:53:02.521Z,12.97
2023-05-03T12:56:06.657Z,12.83
2023-05-03T12:59:39.481Z,12.64
2023-05-03T13:05:36.201Z,12.23
2023-05-03T13:11:41.331Z,12.06
2023-05-03T13:14:43.024Z,12.01
2023-05-03T13:17:46.786Z,12.01
2023-05-03T13:20:49.399Z,12.13
2023-05-03T13:23:50.993Z,12.28
2023-05-03T13:26:52.544Z,12.37
2023-05-03T13:29:54.123Z,12.46
2023-05-03T13:32:55.770Z,12.62
2023-05-03T13:35:57.476Z,12.77
2023-05-03T13:38:59.728Z,12.95
2023-05-03T13:42:01.376Z,13.06
2023-05-03T13:45:04.825Z,13.11
2023-05-03T13:48:17.608Z,13.15
2023-05-03T13:51:20.785Z,13.10
2023-05-03T13:54:22.387Z,13.11
2023-05-03T13:57:23.937Z,13.16
2023-05-03T14:00:25.726Z,13.05
2023-05-03T14:03:27.425Z,12.88
2023-05-03T14:06:30.973Z,12.74
2023-05-03T14:09:39.433Z,12.63
2023-05-03T14:12:41.800Z,12.59
2023-05-03T14:15:45.486Z,12.57
2023-05-03T14:18:49.153Z,12.58
2023-05-03T14:21:51.572Z,12.62
2023-05-03T14:24:53.543Z,12.64
2023-05-03T14:27:56.274Z,12.68
2023-05-03T14:30:58.045Z,12.71
2023-05-03T14:34:00.094Z,12.74
2023-05-03T14:37:01.891Z,12.80
2023-05-03T14:40:05.785Z,12.82
2023-05-03T14:43:09.304Z,12.83
2023-05-03T14:46:11.042Z,12.90
2023-05-03T14:49:14.361Z,12.92
2023-05-03T14:52:16.311Z,12.81
2023-05-03T14:55:17.954Z,12.78
2023-05-03T14:58:19.551Z,12.74
2023-05-03T15:01:21.691Z,12.73
2023-05-03T15:04:23.687Z,12.73
2023-05-03T15:07:25.299Z,12.62
2023-05-03T15:10:27.133Z,12.49
2023-05-03T15:13:28.794Z,12.30
2023-05-03T15:16:30.537Z,12.03
2023-05-03T15:19:32.412Z,11.87
2023-05-03T15:22:35.586Z,11.90
2023-05-03T15:25:38.381Z,11.92
2023-05-03T15:28:39.928Z,11.84
2023-05-03T15:31:42.857Z,11.72
2023-05-03T15:34:44.512Z,11.60
2023-05-03T15:37:46.562Z,11.51
2023-05-03T15:40:48.081Z,11.50
2023-05-03T15:43:49.726Z,11.52
2023-05-03T15:46:51.341Z,11.46
2023-05-03T15:49:53.217Z,11.44
2023-05-03T15:52:56.752Z,11.44
2023-05-03T15:55:58.810Z,11.39
2023-05-03T15:59:00.387Z,11.40
2023-05-03T16:02:03.303Z,11.41
2023-05-03T16:05:05.216Z,11.35
2023-05-03T16:08:08.236Z,11.28
2023-05-03T16:11:09.831Z,11.23
2023-05-03T16:14:12.069Z,11.21
2023-05-03T16:17:13.614Z,11.17
2023-05-03T16:20:15.274Z,11.18
2023-05-03T16:23:17.107Z,11.25
2023-05-03T16:26:19.451Z,11.29
2023-05-03T16:29:21.797Z,11.36
2023-05-03T16:32:23.389Z,11.34
2023-05-03T16:35:25.183Z,11.30
2023-05-03T16:38:30.548Z,11.32
2023-05-03T16:41:32.106Z,11.35
2023-05-03T16:44:33.676Z,11.27
2023-05-03T16:47:35.666Z,11.15
2023-05-03T16:50:37.765Z,11.02
2023-05-03T16:53:39.617Z,10.94
2023-05-03T16:56:41.226Z,10.87
2023-05-03T16:59:43.339Z,10.83
2023-05-03T17:02:45.106Z,10.79
2023-05-03T17:05:46.859Z,10.75
2023-05-03T17:08:48.675Z,10.67
2023-05-03T17:11:50.219Z,10.64
2023-05-03T17:14:51.868Z,10.62
2023-05-03T17:17:53.713Z,10.54
2023-05-03T17:21:01.082Z,10.46
2023-05-03T17:24:02.920Z,10.38
2023-05-03T17:27:08.434Z,10.32
2023-05-03T17:30:10.758Z,10.25
2023-05-03T17:33:12.410Z,10.23
2023-05-03T17:36:14.018Z,10.21
2023-05-03T17:39:15.773Z,10.17
2023-05-03T17:42:17.498Z,10.13
2023-05-03T17:45:19.469Z,10.09
2023-05-03T17:48:21.109Z,10.01
2023-05-03T17:51:22.808Z,9.91
2023-05-03T17:54:24.669Z,9.81
2023-05-03T17:57:26.576Z,9.77
2023-05-03T18:00:28.110Z,9.73
2023-05-03T18:03:29.849Z,9.69
2023-05-03T18:06:32.724Z,9.64
2023-05-03T18:09:35.002Z,9.59
2023-05-03T18:12:37.551Z,9.50
2023-05-03T18:15:41.897Z,9.44
2023-05-03T18:18:43.811Z,9.38
2023-05-03T18:21:46.227Z,9.29
2023-05-03T18:24:54.226Z,9.24
2023-05-03T18:27:57.344Z,9.20
2023-05-03T18:31:00.541Z,9.16
2023-05-03T18:34:03.325Z,9.09
2023-05-03T18:37:05.458Z,9.02
2023-05-03T18:40:07.917Z,8.95
2023-05-03T18:43:10.356Z,8.89
2023-05-03T18:46:18.068Z,8.81
2023-05-03T18:49:21.334Z,8.76
2023-05-03T18:52:23.824Z,8.67
2023-05-03T18:55:26.903Z,8.62
2023-05-03T18:58:29.883Z,8.55
2023-05-03T19:01:31.909Z,8.76
2023-05-03T19:04:34.081Z,8.67
2023-05-03T19:07:37.342Z,8.59
2023-05-03T19:10:39.305Z,8.51
2023-05-03T19:13:47.520Z,8.43
2023-05-03T19:16:49.435Z,8.35
2023-05-03T19:19:51.827Z,8.30
2023-05-03T19:22:53.448Z,8.24
2023-05-03T19:25:55.180Z,8.18
2023-05-03T19:28:56.817Z,8.14
2023-05-03T19:31:58.606Z,8.10
2023-05-03T19:35:00.863Z,8.08
2023-05-03T19:38:02.505Z,8.04
2023-05-03T19:41:13.863Z,7.99
2023-05-03T19:44:16.049Z,7.98
2023-05-03T19:47:17.893Z,7.98
2023-05-03T19:50:19.499Z,7.94
2023-05-03T19:53:21.455Z,7.87
2023-05-03T19:56:23.471Z,7.82
2023-05-03T19:59:25.015Z,7.76
2023-05-03T20:02:27.310Z,7.68
2023-05-03T20:05:29.103Z,7.64
2023-05-03T20:08:31.161Z,7.54
2023-05-03T20:11:32.742Z,7.46
2023-05-03T20:14:35.191Z,7.42
2023-05-03T20:17:37.002Z,7.39
2023-05-03T20:20:39.100Z,7.33
2023-05-03T20:23:40.666Z,7.29
2023-05-03T20:26:42.579Z,7.21
2023-05-03T20:29:44.271Z,7.15
2023-05-03T20:32:45.848Z,7.12
2023-05-03T20:35:47.431Z,7.10
2023-05-03T20:38:48.970Z,7.05
2023-05-03T20:41:50.561Z,7.04
2023-05-03T20:44:53.014Z,7.01
2023-05-03T20:47:54.684Z,6.97
2023-05-03T20:50:58.779Z,6.92
2023-05-03T20:54:00.791Z,6.86
2023-05-03T20:57:02.727Z,6.81
2023-05-03T21:00:04.789Z,6.73
2023-05-03T21:03:07.764Z,6.66
2023-05-03T21:06:09.554Z,6.61
2023-05-03T21:09:11.083Z,6.56
2023-05-03T21:12:12.706Z,6.46
2023-05-03T21:15:14.299Z,6.37
2023-05-03T21:18:15.919Z,6.35
2023-05-03T21:21:17.512Z,6.27
2023-05-03T21:24:19.129Z,6.22
2023-05-03T21:27:22.129Z,6.17
2023-05-03T21:30:24.050Z,6.09
2023-05-03T21:33:26.268Z,6.01
2023-05-03T21:36:27.826Z,5.97
2023-05-03T21:39:29.608Z,5.93
2023-05-03T21:42:31.187Z,5.86
2023-05-03T21:45:32.750Z,5.83
2023-05-03T21:48:35.399Z,5.77
2023-05-03T21:51:36.979Z,5.71
2023-05-03T21:54:38.514Z,5.65
2023-05-03T21:57:40.176Z,5.60
2023-05-03T22:00:42.266Z,5.53
2023-05-03T22:03:44.356Z,5.47
2023-05-03T22:06:46.136Z,5.71
2023-05-03T22:09:48.717Z,5.77
2023-05-03T22:12:50.400Z,5.69
2023-05-03T22:15:52.064Z,5.66
2023-05-03T22:18:53.716Z,5.56
2023-05-03T22:21:55.440Z,5.48
2023-05-03T22:25:00.356Z,5.38
2023-05-03T22:28:01.931Z,5.28
2023-05-03T22:31:03.556Z,5.20
2023-05-03T22:34:05.456Z,5.12
2023-05-03T22:37:07.039Z,5.02
2023-05-03T22:40:09.562Z,4.95
2023-05-03T22:43:11.138Z,4.88
2023-05-03T22:46:12.752Z,4.81
2023-05-03T22:49:14.347Z,4.73
2023-05-03T22:52:16.108Z,4.68
2023-05-03T22:55:18.005Z,4.64
2023-05-03T22:58:19.541Z,4.57
2023-05-03T23:01:21.204Z,4.50
2023-05-03T23:04:22.887Z,4.46
2023-05-03T23:07:24.442Z,4.39
2023-05-03T23:10:25.985Z,4.33
2023-05-03T23:13:27.608Z,4.28
2023-05-03T23:16:29.170Z,4.23
2023-05-03T23:19:30.794Z,4.18
2023-05-03T23:22:32.435Z,4.13
2023-05-03T23:25:34.246Z,4.11
2023-05-03T23:28:36.459Z,4.09
2023-05-03T23:31:38.671Z,4.05
2023-05-03T23:34:40.726Z,4.00
2023-05-03T23:37:42.255Z,3.93
2023-05-03T23:40:43.805Z,3.87
2023-05-03T23:43:45.333Z,3.81
2023-05-03T23:46:46.850Z,3.76
2023-05-03T23:49:48.407Z,3.71
2023-05-03T23:52:49.974Z,3.66
2023-05-03T23:55:51.667Z,3.60
2023-05-03T23:58:53.242Z,3.56
